sensor_id;sensor_type;location;lat;lon;timestamp;P1;durP1;ratioP1;P2;durP2;ratioP2
2049;SDS011;8478;49.208;8.806;2022-10-16T00:01:19;3.07;;;1.97;;
2049;SDS011;8478;49.208;8.806;2022-10-16T00:03:47;2.83;;;2.50;;
2049;SDS011;8478;49.208;8.806;2022-10-16T00:06:13;2.50;;;2.30;;
2049;SDS011;8478;49.208;8.806;2022-10-16T00:08:40;2.10;;;2.00;;
2049;SDS011;8478;49.208;8.806;2022-10-16T00:11:07;2.37;;;2.17;;
2049;SDS011;8478;49.208;8.806;2022-10-16T00:13:41;2.37;;;1.90;;
2049;SDS011;8478;49.208;8.806;2022-10-16T00:16:08;2.20;;;2.00;;
2049;SDS011;8478;49.208;8.806;2022-10-16T00:18:35;2.50;;;2.10;;
2049;SDS011;8478;49.208;8.806;2022-10-16T00:21:05;2.60;;;1.83;;
2049;SDS011;8478;49.208;8.806;2022-10-16T00:23:37;2.90;;;2.00;;
2049;SDS011;8478;49.208;8.806;2022-10-16T00:26:04;3.73;;;2.07;;
2049;SDS011;8478;49.208;8.806;2022-10-16T00:28:31;1.77;;;1.67;;
2049;SDS011;8478;49.208;8.806;2022-10-16T00:30:57;1.70;;;1.60;;
2049;SDS011;8478;49.208;8.806;2022-10-16T00:33:23;3.10;;;2.13;;
2049;SDS011;8478;49.208;8.806;2022-10-16T00:35:49;3.53;;;2.23;;
2049;SDS011;8478;49.208;8.806;2022-10-16T00:38:15;2.33;;;1.80;;
2049;SDS011;8478;49.208;8.806;2022-10-16T00:40:41;2.30;;;2.10;;
2049;SDS011;8478;49.208;8.806;2022-10-16T00:43:41;1.80;;;1.67;;
2049;SDS011;8478;49.208;8.806;2022-10-16T00:46:02;2.20;;;1.67;;
2049;SDS011;8478;49.208;8.806;2022-10-16T00:48:29;1.73;;;1.63;;
2049;SDS011;8478;49.208;8.806;2022-10-16T00:50:56;2.60;;;1.47;;
2049;SDS011;8478;49.208;8.806;2022-10-16T00:53:23;1.93;;;1.80;;
2049;SDS011;8478;49.208;8.806;2022-10-16T00:55:50;3.33;;;2.37;;
2049;SDS011;8478;49.208;8.806;2022-10-16T00:58:16;2.50;;;2.30;;
2049;SDS011;8478;49.208;8.806;2022-10-16T01:00:42;2.83;;;2.53;;
2049;SDS011;8478;49.208;8.806;2022-10-16T01:05:55;2.80;;;2.60;;
2049;SDS011;8478;49.208;8.806;2022-10-16T01:08:34;3.37;;;2.60;;
2049;SDS011;8478;49.208;8.806;2022-10-16T01:11:16;3.47;;;2.93;;
2049;SDS011;8478;49.208;8.806;2022-10-16T01:13:48;2.93;;;2.50;;
2049;SDS011;8478;49.208;8.806;2022-10-16T01:16:35;4.10;;;2.83;;
2049;SDS011;8478;49.208;8.806;2022-10-16T01:19:26;5.80;;;3.40;;
2049;SDS011;8478;49.208;8.806;2022-10-16T01:22:15;3.43;;;3.10;;
2049;SDS011;8478;49.208;8.806;2022-10-16T01:24:46;2.20;;;1.93;;
2049;SDS011;8478;49.208;8.806;2022-10-16T01:27:14;3.50;;;3.20;;
2049;SDS011;8478;49.208;8.806;2022-10-16T01:29:52;2.10;;;2.00;;
2049;SDS011;8478;49.208;8.806;2022-10-16T01:40:19;2.50;;;2.30;;
2049;SDS011;8478;49.208;8.806;2022-10-16T01:46:13;2.77;;;2.57;;
2049;SDS011;8478;49.208;8.806;2022-10-16T01:48:43;2.23;;;2.03;;
2049;SDS011;8478;49.208;8.806;2022-10-16T01:51:11;2.37;;;2.17;;
2049;SDS011;8478;49.208;8.806;2022-10-16T01:53:39;2.60;;;2.03;;
2049;SDS011;8478;49.208;8.806;2022-10-16T01:56:08;2.03;;;1.93;;
2049;SDS011;8478;49.208;8.806;2022-10-16T01:58:38;2.43;;;2.23;;
2049;SDS011;8478;49.208;8.806;2022-10-16T02:01:10;3.77;;;1.67;;
2049;SDS011;8478;49.208;8.806;2022-10-16T02:03:40;2.30;;;2.10;;
2049;SDS011;8478;49.208;8.806;2022-10-16T02:06:07;3.20;;;2.60;;
2049;SDS011;8478;49.208;8.806;2022-10-16T02:08:33;3.10;;;2.37;;
2049;SDS011;8478;49.208;8.806;2022-10-16T02:11:00;2.30;;;2.10;;
2049;SDS011;8478;49.208;8.806;2022-10-16T02:13:39;3.20;;;2.23;;
2049;SDS011;8478;49.208;8.806;2022-10-16T02:16:10;3.17;;;2.10;;
2049;SDS011;8478;49.208;8.806;2022-10-16T02:18:37;2.90;;;2.10;;
2049;SDS011;8478;49.208;8.806;2022-10-16T02:21:10;4.53;;;2.40;;
2049;SDS011;8478;49.208;8.806;2022-10-16T02:26:31;3.30;;;2.03;;
2049;SDS011;8478;49.208;8.806;2022-10-16T02:29:05;2.37;;;1.97;;
2049;SDS011;8478;49.208;8.806;2022-10-16T02:31:38;3.00;;;2.23;;
2049;SDS011;8478;49.208;8.806;2022-10-16T02:34:09;2.40;;;2.20;;
2049;SDS011;8478;49.208;8.806;2022-10-16T02:36:37;2.73;;;2.13;;
2049;SDS011;8478;49.208;8.806;2022-10-16T02:39:04;3.93;;;1.90;;
2049;SDS011;8478;49.208;8.806;2022-10-16T02:41:31;2.13;;;1.90;;
2049;SDS011;8478;49.208;8.806;2022-10-16T02:43:57;2.00;;;1.80;;
2049;SDS011;8478;49.208;8.806;2022-10-16T02:46:23;3.10;;;1.83;;
2049;SDS011;8478;49.208;8.806;2022-10-16T02:48:49;3.10;;;1.90;;
2049;SDS011;8478;49.208;8.806;2022-10-16T02:51:14;1.73;;;1.63;;
2049;SDS011;8478;49.208;8.806;2022-10-16T02:53:40;1.63;;;1.53;;
2049;SDS011;8478;49.208;8.806;2022-10-16T02:56:06;2.50;;;2.30;;
2049;SDS011;8478;49.208;8.806;2022-10-16T02:58:31;2.10;;;1.90;;
2049;SDS011;8478;49.208;8.806;2022-10-16T03:00:57;2.30;;;1.80;;
2049;SDS011;8478;49.208;8.806;2022-10-16T03:03:23;2.43;;;2.23;;
2049;SDS011;8478;49.208;8.806;2022-10-16T03:05:48;2.20;;;2.00;;
2049;SDS011;8478;49.208;8.806;2022-10-16T03:08:14;4.50;;;2.20;;
2049;SDS011;8478;49.208;8.806;2022-10-16T03:10:40;2.03;;;1.83;;
2049;SDS011;8478;49.208;8.806;2022-10-16T03:13:05;2.87;;;2.20;;
2049;SDS011;8478;49.208;8.806;2022-10-16T03:15:31;1.70;;;1.53;;
2049;SDS011;8478;49.208;8.806;2022-10-16T03:17:57;3.37;;;2.33;;
2049;SDS011;8478;49.208;8.806;2022-10-16T03:20:23;2.07;;;1.63;;
2049;SDS011;8478;49.208;8.806;2022-10-16T03:22:49;2.30;;;1.80;;
2049;SDS011;8478;49.208;8.806;2022-10-16T03:25:15;2.70;;;1.60;;
2049;SDS011;8478;49.208;8.806;2022-10-16T03:27:41;3.77;;;1.80;;
2049;SDS011;8478;49.208;8.806;2022-10-16T03:30:06;2.30;;;1.80;;
2049;SDS011;8478;49.208;8.806;2022-10-16T03:32:33;2.07;;;1.87;;
2049;SDS011;8478;49.208;8.806;2022-10-16T03:34:58;2.13;;;1.80;;
2049;SDS011;8478;49.208;8.806;2022-10-16T03:37:24;2.40;;;2.20;;
2049;SDS011;8478;49.208;8.806;2022-10-16T03:39:50;2.00;;;1.90;;
2049;SDS011;8478;49.208;8.806;2022-10-16T03:42:15;2.10;;;1.90;;
2049;SDS011;8478;49.208;8.806;2022-10-16T03:44:41;2.43;;;2.10;;
2049;SDS011;8478;49.208;8.806;2022-10-16T03:47:07;1.93;;;1.83;;
2049;SDS011;8478;49.208;8.806;2022-10-16T03:49:33;2.40;;;2.20;;
2049;SDS011;8478;49.208;8.806;2022-10-16T03:51:58;2.63;;;1.90;;
2049;SDS011;8478;49.208;8.806;2022-10-16T03:54:24;2.60;;;2.00;;
2049;SDS011;8478;49.208;8.806;2022-10-16T03:56:49;1.87;;;1.67;;
2049;SDS011;8478;49.208;8.806;2022-10-16T03:59:15;3.90;;;2.17;;
2049;SDS011;8478;49.208;8.806;2022-10-16T04:01:41;2.50;;;2.30;;
2049;SDS011;8478;49.208;8.806;2022-10-16T04:04:06;3.23;;;2.07;;
2049;SDS011;8478;49.208;8.806;2022-10-16T04:06:32;3.93;;;2.27;;
2049;SDS011;8478;49.208;8.806;2022-10-16T04:08:58;3.63;;;2.40;;
2049;SDS011;8478;49.208;8.806;2022-10-16T04:11:23;4.33;;;2.60;;
2049;SDS011;8478;49.208;8.806;2022-10-16T04:13:49;2.90;;;2.10;;
2049;SDS011;8478;49.208;8.806;2022-10-16T04:16:15;3.73;;;2.13;;
2049;SDS011;8478;49.208;8.806;2022-10-16T04:18:40;2.10;;;1.90;;
2049;SDS011;8478;49.208;8.806;2022-10-16T04:21:06;4.20;;;2.20;;
2049;SDS011;8478;49.208;8.806;2022-10-16T04:23:32;3.90;;;2.30;;
2049;SDS011;8478;49.208;8.806;2022-10-16T04:25:58;2.33;;;2.17;;
2049;SDS011;8478;49.208;8.806;2022-10-16T04:28:25;3.83;;;2.00;;
2049;SDS011;8478;49.208;8.806;2022-10-16T04:30:50;5.07;;;1.97;;
2049;SDS011;8478;49.208;8.806;2022-10-16T04:33:16;2.10;;;2.00;;
2049;SDS011;8478;49.208;8.806;2022-10-16T04:35:41;2.23;;;2.00;;
2049;SDS011;8478;49.208;8.806;2022-10-16T04:38:07;5.23;;;2.33;;
2049;SDS011;8478;49.208;8.806;2022-10-16T04:40:33;1.87;;;1.77;;
2049;SDS011;8478;49.208;8.806;2022-10-16T04:43:01;3.13;;;1.97;;
2049;SDS011;8478;49.208;8.806;2022-10-16T04:45:27;2.60;;;2.03;;
2049;SDS011;8478;49.208;8.806;2022-10-16T04:47:56;1.77;;;1.67;;
2049;SDS011;8478;49.208;8.806;2022-10-16T04:50:22;4.17;;;1.70;;
2049;SDS011;8478;49.208;8.806;2022-10-16T04:52:48;2.47;;;2.27;;
2049;SDS011;8478;49.208;8.806;2022-10-16T04:55:14;5.37;;;1.97;;
2049;SDS011;8478;49.208;8.806;2022-10-16T04:57:40;2.50;;;2.30;;
2049;SDS011;8478;49.208;8.806;2022-10-16T05:00:05;2.20;;;2.00;;
2049;SDS011;8478;49.208;8.806;2022-10-16T05:02:32;2.23;;;2.00;;
2049;SDS011;8478;49.208;8.806;2022-10-16T05:04:58;2.90;;;2.00;;
2049;SDS011;8478;49.208;8.806;2022-10-16T05:07:24;3.97;;;2.30;;
2049;SDS011;8478;49.208;8.806;2022-10-16T05:09:49;2.60;;;1.67;;
2049;SDS011;8478;49.208;8.806;2022-10-16T05:12:15;2.03;;;1.73;;
2049;SDS011;8478;49.208;8.806;2022-10-16T05:14:41;2.27;;;2.00;;
2049;SDS011;8478;49.208;8.806;2022-10-16T05:17:07;5.70;;;1.93;;
2049;SDS011;8478;49.208;8.806;2022-10-16T05:19:32;4.13;;;2.73;;
2049;SDS011;8478;49.208;8.806;2022-10-16T05:21:58;3.10;;;1.80;;
2049;SDS011;8478;49.208;8.806;2022-10-16T05:24:24;2.30;;;1.60;;
2049;SDS011;8478;49.208;8.806;2022-10-16T05:26:50;2.40;;;1.73;;
2049;SDS011;8478;49.208;8.806;2022-10-16T05:29:15;3.63;;;1.50;;
2049;SDS011;8478;49.208;8.806;2022-10-16T05:31:41;1.97;;;1.70;;
2049;SDS011;8478;49.208;8.806;2022-10-16T05:34:07;3.40;;;1.70;;
2049;SDS011;8478;49.208;8.806;2022-10-16T05:36:32;2.03;;;1.83;;
2049;SDS011;8478;49.208;8.806;2022-10-16T05:38:58;3.20;;;1.77;;
2049;SDS011;8478;49.208;8.806;2022-10-16T05:41:24;2.60;;;1.87;;
2049;SDS011;8478;49.208;8.806;2022-10-16T05:43:51;2.33;;;1.87;;
2049;SDS011;8478;49.208;8.806;2022-10-16T05:46:17;2.70;;;1.90;;
2049;SDS011;8478;49.208;8.806;2022-10-16T05:48:43;2.20;;;1.97;;
2049;SDS011;8478;49.208;8.806;2022-10-16T05:51:10;2.67;;;2.37;;
2049;SDS011;8478;49.208;8.806;2022-10-16T05:53:37;2.40;;;1.83;;
2049;SDS011;8478;49.208;8.806;2022-10-16T05:56:04;2.30;;;1.93;;
2049;SDS011;8478;49.208;8.806;2022-10-16T05:58:31;2.60;;;1.53;;
2049;SDS011;8478;49.208;8.806;2022-10-16T06:01:01;3.67;;;1.77;;
2049;SDS011;8478;49.208;8.806;2022-10-16T06:03:28;1.73;;;1.63;;
2049;SDS011;8478;49.208;8.806;2022-10-16T06:05:54;3.60;;;2.20;;
2049;SDS011;8478;49.208;8.806;2022-10-16T06:08:21;2.37;;;1.73;;
2049;SDS011;8478;49.208;8.806;2022-10-16T06:10:48;5.03;;;2.00;;
2049;SDS011;8478;49.208;8.806;2022-10-16T06:13:14;2.23;;;1.60;;
2049;SDS011;8478;49.208;8.806;2022-10-16T06:15:41;9.83;;;2.50;;
2049;SDS011;8478;49.208;8.806;2022-10-16T06:18:10;2.40;;;2.30;;
2049;SDS011;8478;49.208;8.806;2022-10-16T06:20:36;2.83;;;2.60;;
2049;SDS011;8478;49.208;8.806;2022-10-16T06:23:02;4.03;;;2.23;;
2049;SDS011;8478;49.208;8.806;2022-10-16T06:25:29;3.00;;;1.87;;
2049;SDS011;8478;49.208;8.806;2022-10-16T06:27:56;3.33;;;2.03;;
2049;SDS011;8478;49.208;8.806;2022-10-16T06:30:21;2.27;;;2.10;;
2049;SDS011;8478;49.208;8.806;2022-10-16T06:32:47;2.30;;;1.80;;
2049;SDS011;8478;49.208;8.806;2022-10-16T06:35:12;2.10;;;1.90;;
2049;SDS011;8478;49.208;8.806;2022-10-16T06:37:38;4.27;;;2.20;;
2049;SDS011;8478;49.208;8.806;2022-10-16T06:40:04;3.70;;;2.63;;
2049;SDS011;8478;49.208;8.806;2022-10-16T06:42:30;2.17;;;2.03;;
2049;SDS011;8478;49.208;8.806;2022-10-16T06:44:56;3.80;;;1.93;;
2049;SDS011;8478;49.208;8.806;2022-10-16T06:47:21;2.53;;;2.20;;
2049;SDS011;8478;49.208;8.806;2022-10-16T06:49:47;3.10;;;2.17;;
2049;SDS011;8478;49.208;8.806;2022-10-16T06:52:13;2.80;;;2.23;;
2049;SDS011;8478;49.208;8.806;2022-10-16T06:54:38;2.97;;;2.27;;
2049;SDS011;8478;49.208;8.806;2022-10-16T06:57:04;3.63;;;1.90;;
2049;SDS011;8478;49.208;8.806;2022-10-16T06:59:29;3.63;;;2.37;;
2049;SDS011;8478;49.208;8.806;2022-10-16T07:01:55;2.00;;;1.80;;
2049;SDS011;8478;49.208;8.806;2022-10-16T07:04:21;5.20;;;2.57;;
2049;SDS011;8478;49.208;8.806;2022-10-16T07:06:46;3.33;;;1.83;;
2049;SDS011;8478;49.208;8.806;2022-10-16T07:09:12;3.20;;;2.10;;
2049;SDS011;8478;49.208;8.806;2022-10-16T07:11:38;2.10;;;2.00;;
2049;SDS011;8478;49.208;8.806;2022-10-16T07:14:09;1.90;;;1.70;;
2049;SDS011;8478;49.208;8.806;2022-10-16T07:16:40;4.47;;;2.50;;
2049;SDS011;8478;49.208;8.806;2022-10-16T07:19:06;2.20;;;2.10;;
2049;SDS011;8478;49.208;8.806;2022-10-16T07:21:32;2.90;;;2.30;;
2049;SDS011;8478;49.208;8.806;2022-10-16T07:24:02;5.83;;;2.20;;
2049;SDS011;8478;49.208;8.806;2022-10-16T07:26:30;2.33;;;2.07;;
2049;SDS011;8478;49.208;8.806;2022-10-16T07:28:57;2.33;;;2.03;;
2049;SDS011;8478;49.208;8.806;2022-10-16T07:31:23;2.50;;;1.60;;
2049;SDS011;8478;49.208;8.806;2022-10-16T07:33:49;3.63;;;2.13;;
2049;SDS011;8478;49.208;8.806;2022-10-16T07:36:16;2.87;;;2.27;;
2049;SDS011;8478;49.208;8.806;2022-10-16T07:38:43;3.87;;;2.50;;
2049;SDS011;8478;49.208;8.806;2022-10-16T07:41:10;1.80;;;1.70;;
2049;SDS011;8478;49.208;8.806;2022-10-16T07:43:38;2.43;;;2.23;;
2049;SDS011;8478;49.208;8.806;2022-10-16T07:46:04;2.70;;;2.50;;
2049;SDS011;8478;49.208;8.806;2022-10-16T07:48:32;2.50;;;2.20;;
2049;SDS011;8478;49.208;8.806;2022-10-16T07:50:59;2.83;;;2.50;;
2049;SDS011;8478;49.208;8.806;2022-10-16T07:53:26;3.83;;;2.63;;
2049;SDS011;8478;49.208;8.806;2022-10-16T07:55:56;6.80;;;2.17;;
2049;SDS011;8478;49.208;8.806;2022-10-16T07:58:23;2.57;;;2.30;;
2049;SDS011;8478;49.208;8.806;2022-10-16T08:00:49;2.40;;;2.20;;
2049;SDS011;8478;49.208;8.806;2022-10-16T08:03:14;2.73;;;1.90;;
2049;SDS011;8478;49.208;8.806;2022-10-16T08:05:40;3.90;;;2.33;;
2049;SDS011;8478;49.208;8.806;2022-10-16T08:08:06;2.10;;;2.00;;
2049;SDS011;8478;49.208;8.806;2022-10-16T08:10:31;2.93;;;2.43;;
2049;SDS011;8478;49.208;8.806;2022-10-16T08:12:57;2.40;;;2.20;;
2049;SDS011;8478;49.208;8.806;2022-10-16T08:15:23;5.43;;;2.60;;
2049;SDS011;8478;49.208;8.806;2022-10-16T08:17:56;2.53;;;2.33;;
2049;SDS011;8478;49.208;8.806;2022-10-16T08:20:26;3.47;;;2.50;;
2049;SDS011;8478;49.208;8.806;2022-10-16T08:22:53;2.70;;;2.50;;
2049;SDS011;8478;49.208;8.806;2022-10-16T08:25:20;2.90;;;2.70;;
2049;SDS011;8478;49.208;8.806;2022-10-16T08:27:47;2.57;;;2.37;;
2049;SDS011;8478;49.208;8.806;2022-10-16T08:30:12;2.43;;;2.20;;
2049;SDS011;8478;49.208;8.806;2022-10-16T08:32:39;2.90;;;2.70;;
2049;SDS011;8478;49.208;8.806;2022-10-16T08:35:06;2.67;;;2.47;;
2049;SDS011;8478;49.208;8.806;2022-10-16T08:37:34;3.00;;;2.80;;
2049;SDS011;8478;49.208;8.806;2022-10-16T08:40:00;2.57;;;2.37;;
2049;SDS011;8478;49.208;8.806;2022-10-16T08:50:41;2.70;;;2.50;;
2049;SDS011;8478;49.208;8.806;2022-10-16T08:53:07;2.10;;;2.00;;
2049;SDS011;8478;49.208;8.806;2022-10-16T08:55:45;2.50;;;2.30;;
2049;SDS011;8478;49.208;8.806;2022-10-16T08:58:18;2.70;;;2.30;;
2049;SDS011;8478;49.208;8.806;2022-10-16T09:00:50;3.00;;;2.10;;
2049;SDS011;8478;49.208;8.806;2022-10-16T09:11:52;2.60;;;2.40;;
2049;SDS011;8478;49.208;8.806;2022-10-16T09:19:54;2.13;;;2.03;;
2049;SDS011;8478;49.208;8.806;2022-10-16T09:22:50;2.07;;;1.87;;
2049;SDS011;8478;49.208;8.806;2022-10-16T09:25:33;1.80;;;1.70;;
2049;SDS011;8478;49.208;8.806;2022-10-16T09:28:00;2.40;;;2.20;;
2049;SDS011;8478;49.208;8.806;2022-10-16T09:30:27;2.20;;;2.00;;
2049;SDS011;8478;49.208;8.806;2022-10-16T09:32:54;2.57;;;2.40;;
2049;SDS011;8478;49.208;8.806;2022-10-16T09:35:23;2.50;;;2.30;;
2049;SDS011;8478;49.208;8.806;2022-10-16T09:37:56;2.10;;;1.90;;
2049;SDS011;8478;49.208;8.806;2022-10-16T09:40:32;2.30;;;2.10;;
2049;SDS011;8478;49.208;8.806;2022-10-16T09:43:16;2.13;;;1.90;;
2049;SDS011;8478;49.208;8.806;2022-10-16T09:45:56;2.33;;;2.07;;
2049;SDS011;8478;49.208;8.806;2022-10-16T09:48:30;4.00;;;2.30;;
2049;SDS011;8478;49.208;8.806;2022-10-16T09:51:16;4.37;;;3.40;;
2049;SDS011;8478;49.208;8.806;2022-10-16T09:53:45;2.83;;;1.90;;
2049;SDS011;8478;49.208;8.806;2022-10-16T09:56:20;2.43;;;2.10;;
2049;SDS011;8478;49.208;8.806;2022-10-16T09:58:52;4.93;;;2.20;;
2049;SDS011;8478;49.208;8.806;2022-10-16T10:01:19;1.97;;;1.83;;
2049;SDS011;8478;49.208;8.806;2022-10-16T10:03:46;2.53;;;2.00;;
2049;SDS011;8478;49.208;8.806;2022-10-16T10:06:24;3.03;;;1.93;;
2049;SDS011;8478;49.208;8.806;2022-10-16T10:08:58;2.53;;;2.33;;
2049;SDS011;8478;49.208;8.806;2022-10-16T10:16:48;4.90;;;2.63;;
2049;SDS011;8478;49.208;8.806;2022-10-16T10:19:16;2.63;;;2.43;;
2049;SDS011;8478;49.208;8.806;2022-10-16T10:21:43;3.00;;;2.20;;
2049;SDS011;8478;49.208;8.806;2022-10-16T10:24:12;2.63;;;1.70;;
2049;SDS011;8478;49.208;8.806;2022-10-16T10:26:45;2.30;;;2.10;;
2049;SDS011;8478;49.208;8.806;2022-10-16T10:37:49;2.60;;;2.40;;
2049;SDS011;8478;49.208;8.806;2022-10-16T10:40:40;2.17;;;2.07;;
2049;SDS011;8478;49.208;8.806;2022-10-16T10:45:59;2.57;;;2.37;;
2049;SDS011;8478;49.208;8.806;2022-10-16T10:51:16;2.10;;;2.00;;
2049;SDS011;8478;49.208;8.806;2022-10-16T10:56:47;2.50;;;2.30;;
2049;SDS011;8478;49.208;8.806;2022-10-16T11:02:07;2.27;;;2.10;;
2049;SDS011;8478;49.208;8.806;2022-10-16T11:07:32;2.80;;;2.60;;
2049;SDS011;8478;49.208;8.806;2022-10-16T11:10:03;2.70;;;2.40;;
2049;SDS011;8478;49.208;8.806;2022-10-16T11:12:51;2.70;;;2.50;;
2049;SDS011;8478;49.208;8.806;2022-10-16T11:15:32;2.47;;;2.27;;
2049;SDS011;8478;49.208;8.806;2022-10-16T11:18:06;2.17;;;1.97;;
2049;SDS011;8478;49.208;8.806;2022-10-16T11:20:49;2.60;;;2.40;;
2049;SDS011;8478;49.208;8.806;2022-10-16T11:23:26;5.13;;;2.40;;
2049;SDS011;8478;49.208;8.806;2022-10-16T11:26:19;5.90;;;2.43;;
2049;SDS011;8478;49.208;8.806;2022-10-16T11:28:49;3.20;;;2.23;;
2049;SDS011;8478;49.208;8.806;2022-10-16T11:31:22;3.83;;;2.00;;
2049;SDS011;8478;49.208;8.806;2022-10-16T11:33:59;2.67;;;2.47;;
2049;SDS011;8478;49.208;8.806;2022-10-16T11:36:42;1.87;;;1.77;;
2049;SDS011;8478;49.208;8.806;2022-10-16T11:39:22;2.57;;;2.20;;
2049;SDS011;8478;49.208;8.806;2022-10-16T11:42:37;2.60;;;2.23;;
2049;SDS011;8478;49.208;8.806;2022-10-16T11:55:49;2.03;;;1.93;;
2049;SDS011;8478;49.208;8.806;2022-10-16T11:58:31;3.03;;;2.50;;
2049;SDS011;8478;49.208;8.806;2022-10-16T12:09:14;2.90;;;2.70;;
2049;SDS011;8478;49.208;8.806;2022-10-16T12:11:46;2.20;;;2.10;;
2049;SDS011;8478;49.208;8.806;2022-10-16T12:16:59;2.67;;;2.47;;
2049;SDS011;8478;49.208;8.806;2022-10-16T12:19:25;2.67;;;2.47;;
2049;SDS011;8478;49.208;8.806;2022-10-16T12:21:54;3.00;;;2.67;;
2049;SDS011;8478;49.208;8.806;2022-10-16T12:26:56;4.40;;;2.77;;
2049;SDS011;8478;49.208;8.806;2022-10-16T12:32:00;2.27;;;2.03;;
2049;SDS011;8478;49.208;8.806;2022-10-16T12:34:39;2.67;;;2.47;;
2049;SDS011;8478;49.208;8.806;2022-10-16T12:37:13;2.22;;;1.80;;
2049;SDS011;8478;49.208;8.806;2022-10-16T12:39:44;2.77;;;2.57;;
2049;SDS011;8478;49.208;8.806;2022-10-16T12:42:31;2.60;;;2.40;;
2049;SDS011;8478;49.208;8.806;2022-10-16T12:44:59;3.50;;;2.07;;
2049;SDS011;8478;49.208;8.806;2022-10-16T12:49:58;2.57;;;2.37;;
2049;SDS011;8478;49.208;8.806;2022-10-16T12:52:42;2.20;;;2.10;;
2049;SDS011;8478;49.208;8.806;2022-10-16T12:55:14;2.77;;;2.57;;
2049;SDS011;8478;49.208;8.806;2022-10-16T13:00:36;4.67;;;2.50;;
2049;SDS011;8478;49.208;8.806;2022-10-16T13:08:39;2.63;;;2.43;;
2049;SDS011;8478;49.208;8.806;2022-10-16T13:17:17;3.50;;;2.33;;
2049;SDS011;8478;49.208;8.806;2022-10-16T13:23:26;4.00;;;2.57;;
2049;SDS011;8478;49.208;8.806;2022-10-16T13:28:33;4.40;;;2.80;;
2049;SDS011;8478;49.208;8.806;2022-10-16T13:31:00;3.13;;;2.40;;
2049;SDS011;8478;49.208;8.806;2022-10-16T13:33:31;2.87;;;2.50;;
2049;SDS011;8478;49.208;8.806;2022-10-16T13:36:03;2.10;;;1.97;;
2049;SDS011;8478;49.208;8.806;2022-10-16T13:38:31;2.20;;;2.00;;
2049;SDS011;8478;49.208;8.806;2022-10-16T13:40:59;2.43;;;2.23;;
2049;SDS011;8478;49.208;8.806;2022-10-16T13:43:36;4.43;;;2.17;;
2049;SDS011;8478;49.208;8.806;2022-10-16T13:46:13;2.67;;;2.30;;
2049;SDS011;8478;49.208;8.806;2022-10-16T13:48:39;2.43;;;2.30;;
2049;SDS011;8478;49.208;8.806;2022-10-16T13:51:15;4.30;;;2.47;;
2049;SDS011;8478;49.208;8.806;2022-10-16T13:53:42;2.40;;;2.10;;
2049;SDS011;8478;49.208;8.806;2022-10-16T13:56:12;2.60;;;2.07;;
2049;SDS011;8478;49.208;8.806;2022-10-16T13:58:41;2.70;;;2.23;;
2049;SDS011;8478;49.208;8.806;2022-10-16T14:01:26;4.60;;;2.90;;
2049;SDS011;8478;49.208;8.806;2022-10-16T14:03:59;2.70;;;2.50;;
2049;SDS011;8478;49.208;8.806;2022-10-16T14:06:33;2.63;;;2.43;;
2049;SDS011;8478;49.208;8.806;2022-10-16T14:09:05;2.90;;;2.03;;
2049;SDS011;8478;49.208;8.806;2022-10-16T14:11:52;5.47;;;2.13;;
2049;SDS011;8478;49.208;8.806;2022-10-16T14:14:20;2.60;;;2.27;;
2049;SDS011;8478;49.208;8.806;2022-10-16T14:16:47;1.93;;;1.80;;
2049;SDS011;8478;49.208;8.806;2022-10-16T14:19:24;3.00;;;2.30;;
2049;SDS011;8478;49.208;8.806;2022-10-16T14:21:52;2.60;;;2.40;;
2049;SDS011;8478;49.208;8.806;2022-10-16T14:26:57;2.50;;;2.30;;
2049;SDS011;8478;49.208;8.806;2022-10-16T14:29:24;2.30;;;2.10;;
2049;SDS011;8478;49.208;8.806;2022-10-16T14:31:58;5.83;;;2.60;;
2049;SDS011;8478;49.208;8.806;2022-10-16T14:34:26;2.80;;;2.43;;
2049;SDS011;8478;49.208;8.806;2022-10-16T14:36:58;3.50;;;2.27;;
2049;SDS011;8478;49.208;8.806;2022-10-16T14:39:29;3.40;;;2.80;;
2049;SDS011;8478;49.208;8.806;2022-10-16T14:41:55;3.07;;;2.87;;
2049;SDS011;8478;49.208;8.806;2022-10-16T14:44:25;3.90;;;3.50;;
2049;SDS011;8478;49.208;8.806;2022-10-16T14:46:54;4.07;;;3.77;;
2049;SDS011;8478;49.208;8.806;2022-10-16T14:49:20;7.43;;;5.60;;
2049;SDS011;8478;49.208;8.806;2022-10-16T14:51:48;6.97;;;4.60;;
2049;SDS011;8478;49.208;8.806;2022-10-16T14:54:15;5.00;;;4.60;;
2049;SDS011;8478;49.208;8.806;2022-10-16T14:56:43;8.90;;;4.50;;
2049;SDS011;8478;49.208;8.806;2022-10-16T14:59:17;4.90;;;4.50;;
2049;SDS011;8478;49.208;8.806;2022-10-16T15:02:31;5.23;;;4.77;;
2049;SDS011;8478;49.208;8.806;2022-10-16T15:05:14;4.70;;;4.30;;
2049;SDS011;8478;49.208;8.806;2022-10-16T15:07:40;4.43;;;4.03;;
2049;SDS011;8478;49.208;8.806;2022-10-16T15:10:06;4.67;;;4.07;;
2049;SDS011;8478;49.208;8.806;2022-10-16T15:12:31;8.53;;;4.23;;
2049;SDS011;8478;49.208;8.806;2022-10-16T15:14:57;5.90;;;5.40;;
2049;SDS011;8478;49.208;8.806;2022-10-16T15:17:23;6.37;;;5.10;;
2049;SDS011;8478;49.208;8.806;2022-10-16T15:19:48;5.67;;;4.63;;
2049;SDS011;8478;49.208;8.806;2022-10-16T15:22:14;6.20;;;5.70;;
2049;SDS011;8478;49.208;8.806;2022-10-16T15:24:40;8.63;;;7.13;;
2049;SDS011;8478;49.208;8.806;2022-10-16T15:27:05;6.90;;;6.30;;
2049;SDS011;8478;49.208;8.806;2022-10-16T15:29:31;6.60;;;6.00;;
2049;SDS011;8478;49.208;8.806;2022-10-16T15:31:57;6.63;;;6.13;;
2049;SDS011;8478;49.208;8.806;2022-10-16T15:34:22;6.73;;;6.00;;
2049;SDS011;8478;49.208;8.806;2022-10-16T15:36:48;6.70;;;6.10;;
2049;SDS011;8478;49.208;8.806;2022-10-16T15:39:17;5.63;;;4.60;;
2049;SDS011;8478;49.208;8.806;2022-10-16T15:41:45;5.80;;;4.80;;
2049;SDS011;8478;49.208;8.806;2022-10-16T15:44:16;5.60;;;5.10;;
2049;SDS011;8478;49.208;8.806;2022-10-16T15:46:42;5.40;;;4.90;;
2049;SDS011;8478;49.208;8.806;2022-10-16T15:49:08;9.10;;;5.50;;
2049;SDS011;8478;49.208;8.806;2022-10-16T15:51:35;5.27;;;4.87;;
2049;SDS011;8478;49.208;8.806;2022-10-16T15:54:04;10.50;;;5.87;;
2049;SDS011;8478;49.208;8.806;2022-10-16T15:56:29;5.03;;;4.63;;
2049;SDS011;8478;49.208;8.806;2022-10-16T15:58:58;6.27;;;5.13;;
2049;SDS011;8478;49.208;8.806;2022-10-16T16:01:25;5.80;;;5.30;;
2049;SDS011;8478;49.208;8.806;2022-10-16T16:03:54;6.03;;;5.40;;
2049;SDS011;8478;49.208;8.806;2022-10-16T16:06:21;6.53;;;4.70;;
2049;SDS011;8478;49.208;8.806;2022-10-16T16:08:48;5.80;;;5.40;;
2049;SDS011;8478;49.208;8.806;2022-10-16T16:11:15;5.37;;;4.87;;
2049;SDS011;8478;49.208;8.806;2022-10-16T16:13:42;5.20;;;4.70;;
2049;SDS011;8478;49.208;8.806;2022-10-16T16:16:09;4.77;;;4.37;;
2049;SDS011;8478;49.208;8.806;2022-10-16T16:18:36;5.00;;;4.60;;
2049;SDS011;8478;49.208;8.806;2022-10-16T16:21:03;7.47;;;4.53;;
2049;SDS011;8478;49.208;8.806;2022-10-16T16:23:29;5.97;;;5.37;;
2049;SDS011;8478;49.208;8.806;2022-10-16T16:26:05;4.63;;;4.33;;
2049;SDS011;8478;49.208;8.806;2022-10-16T16:28:40;4.93;;;4.57;;
2049;SDS011;8478;49.208;8.806;2022-10-16T16:31:07;5.63;;;4.87;;
2049;SDS011;8478;49.208;8.806;2022-10-16T16:33:33;4.97;;;4.47;;
2049;SDS011;8478;49.208;8.806;2022-10-16T16:35:59;4.87;;;4.47;;
2049;SDS011;8478;49.208;8.806;2022-10-16T16:38:26;4.87;;;4.37;;
2049;SDS011;8478;49.208;8.806;2022-10-16T16:40:53;4.27;;;3.97;;
2049;SDS011;8478;49.208;8.806;2022-10-16T16:43:24;5.40;;;4.90;;
2049;SDS011;8478;49.208;8.806;2022-10-16T16:45:51;5.80;;;4.13;;
2049;SDS011;8478;49.208;8.806;2022-10-16T16:48:18;4.97;;;4.50;;
2049;SDS011;8478;49.208;8.806;2022-10-16T16:50:43;4.50;;;4.10;;
2049;SDS011;8478;49.208;8.806;2022-10-16T16:53:09;4.37;;;3.93;;
2049;SDS011;8478;49.208;8.806;2022-10-16T16:55:35;7.37;;;3.80;;
2049;SDS011;8478;49.208;8.806;2022-10-16T16:58:00;5.30;;;4.80;;
2049;SDS011;8478;49.208;8.806;2022-10-16T17:00:27;5.40;;;3.87;;
2049;SDS011;8478;49.208;8.806;2022-10-16T17:02:53;5.20;;;3.90;;
2049;SDS011;8478;49.208;8.806;2022-10-16T17:05:19;4.60;;;3.60;;
2049;SDS011;8478;49.208;8.806;2022-10-16T17:07:45;4.63;;;3.73;;
2049;SDS011;8478;49.208;8.806;2022-10-16T17:10:10;10.43;;;4.80;;
2049;SDS011;8478;49.208;8.806;2022-10-16T17:12:36;5.60;;;3.47;;
2049;SDS011;8478;49.208;8.806;2022-10-16T17:15:02;5.73;;;3.90;;
2049;SDS011;8478;49.208;8.806;2022-10-16T17:17:28;3.73;;;3.37;;
2049;SDS011;8478;49.208;8.806;2022-10-16T17:19:54;5.30;;;3.03;;
2049;SDS011;8478;49.208;8.806;2022-10-16T17:22:19;3.83;;;3.00;;
2049;SDS011;8478;49.208;8.806;2022-10-16T17:24:48;4.63;;;3.30;;
2049;SDS011;8478;49.208;8.806;2022-10-16T17:27:18;7.90;;;3.00;;